Time;durP1;ratioP1;P1;durP2;ratioP2;P2;SDS_P1;SDS_P2;PMS_P1;PMS_P2;Temp;Humidity;BMP_temperature;BMP_pressure;BME280_temperature;BME280_humidity;BME280_pressure;Samples;Min_cycle;Max_cycle;Signal;HPM_P1;HPM_P2
2021/01/12 10:16:50;;;;;;;11.80;1.85;;;24.20;99.90;;;;;;5090630;27;20778;-60
2021/01/12 10:19:17;;;;;;;8.07;2.20;;;23.90;99.90;;;;;;5089362;28;20172;-60
2021/01/12 10:21:45;;;;;;;13.10;4.32;;;23.80;99.90;;;;;;5090487;28;20021;-59
2021/01/12 10:24:12;;;;;;;13.13;11.77;;;23.60;99.90;;;;;;5090363;28;20490;-59
2021/01/12 10:26:39;;;;;;;18.52;13.68;;;23.30;99.90;;;;;;5090514;28;20032;-60
2021/01/12 10:29:07;;;;;;;13.70;12.30;;;23.30;99.90;;;;;;5090323;28;20111;-58
2021/01/12 10:31:34;;;;;;;13.90;11.40;;;23.20;99.90;;;;;;5090213;28;20027;-60
2021/01/12 10:34:01;;;;;;;15.70;13.20;;;23.10;99.90;;;;;;5090310;28;20099;-60
2021/01/12 10:36:29;;;;;;;16.23;11.57;;;23.10;99.90;;;;;;5090230;28;20024;-60
2021/01/12 10:38:56;;;;;;;15.82;12.50;;;23.10;99.90;;;;;;5090405;28;20024;-59
2021/01/12 10:41:23;;;;;;;13.23;11.85;;;23.10;99.90;;;;;;5088725;28;20405;-57
2021/01/12 10:43:51;;;;;;;15.27;11.45;;;23.00;99.90;;;;;;5090139;28;20100;-59
2021/01/12 10:46:18;;;;;;;16.58;11.13;;;23.00;99.90;;;;;;5089951;28;20111;-59
2021/01/12 10:48:45;;;;;;;16.50;11.98;;;23.00;99.90;;;;;;5090079;28;20024;-59
2021/01/12 10:51:18;;;;;;;15.90;11.00;;;23.00;99.90;;;;;;5089975;28;20020;-61
2021/01/12 10:53:45;;;;;;;18.67;11.38;;;22.90;99.90;;;;;;5090120;28;20033;-59
2021/01/12 10:56:16;;;;;;;20.38;11.07;;;22.90;99.90;;;;;;5089876;28;20040;-59
2021/01/12 10:58:44;;;;;;;17.50;11.73;;;22.90;99.90;;;;;;5089804;28;20028;-60
2021/01/12 11:01:16;;;;;;;17.10;12.02;;;22.90;99.90;;;;;;5089888;28;20114;-59
2021/01/12 11:03:45;;;;;;;17.73;11.10;;;22.90;99.90;;;;;;5089744;28;20073;-59
2021/01/12 11:06:13;;;;;;;12.95;11.73;;;22.90;99.90;;;;;;5089737;28;20116;-59
2021/01/12 11:08:41;;;;;;;14.15;10.88;;;22.90;99.90;;;;;;5089719;28;20025;-59
2021/01/12 11:11:09;;;;;;;14.50;11.88;;;22.90;99.90;;;;;;5089550;28;20027;-59
2021/01/12 11:13:36;;;;;;;17.48;11.38;;;23.00;99.90;;;;;;5089545;28;20365;-58
2021/01/12 11:16:04;;;;;;;13.50;10.75;;;22.90;99.90;;;;;;5089363;28;20040;-59
2021/01/12 11:18:31;;;;;;;13.82;10.93;;;23.00;99.90;;;;;;5089449;28;20096;-59
2021/01/12 11:21:02;;;;;;;13.65;10.20;;;22.90;99.90;;;;;;5089527;28;20020;-59
2021/01/12 11:23:30;;;;;;;19.63;11.32;;;22.90;99.90;;;;;;5088425;28;20031;-59
2021/01/12 11:25:58;;;;;;;16.58;11.18;;;22.90;99.90;;;;;;5088302;28;20025;-59
2021/01/12 11:28:25;;;;;;;18.35;10.07;;;23.00;99.90;;;;;;5075395;28;20403;-61
2021/01/12 11:30:52;;;;;;;16.48;10.07;;;23.00;99.90;;;;;;5075838;28;20423;-59
2021/01/12 11:33:20;;;;;;;17.35;10.10;;;22.90;99.90;;;;;;5075677;28;20044;-60
2021/01/12 11:35:47;;;;;;;14.80;10.13;;;22.90;99.90;;;;;;5075543;28;20036;-60
2021/01/12 11:38:14;;;;;;;14.75;10.10;;;22.90;99.90;;;;;;5075810;28;20073;-60
2021/01/12 11:40:42;;;;;;;12.48;9.60;;;22.80;99.90;;;;;;5075555;28;20069;-60
2021/01/12 11:43:09;;;;;;;14.75;10.30;;;22.70;99.90;;;;;;5075617;28;20016;-61
2021/01/12 11:45:36;;;;;;;14.88;11.02;;;22.70;99.90;;;;;;5075518;28;20476;-60
2021/01/12 11:48:04;;;;;;;17.10;11.63;;;22.60;99.90;;;;;;5075400;28;20400;-60
2021/01/12 11:50:31;;;;;;;14.48;11.18;;;22.60;99.90;;;;;;5075335;28;20537;-60
2021/01/12 11:52:58;;;;;;;18.13;11.30;;;22.60;99.90;;;;;;5075289;28;20025;-60
2021/01/12 11:55:27;;;;;;;15.70;11.50;;;22.50;99.90;;;;;;5075167;28;20115;-60
2021/01/12 11:57:54;;;;;;;15.25;11.50;;;22.50;99.90;;;;;;5075190;28;20484;-60
2021/01/12 12:00:21;;;;;;;16.00;11.35;;;22.50;99.90;;;;;;5075142;28;20103;-61
2021/01/12 12:02:49;;;;;;;13.63;11.68;;;22.40;99.90;;;;;;5075238;28;20013;-60
2021/01/12 12:05:16;;;;;;;14.20;11.15;;;22.40;99.90;;;;;;5075197;28;20016;-60
2021/01/12 12:07:44;;;;;;;16.10;11.18;;;22.30;99.90;;;;;;5075051;28;20472;-60
2021/01/12 12:10:11;;;;;;;16.95;12.00;;;22.30;99.90;;;;;;5075088;28;20380;-60
2021/01/12 12:12:39;;;;;;;13.93;12.07;;;22.30;99.90;;;;;;5074869;28;20067;-60
2021/01/12 12:15:07;;;;;;;20.55;12.18;;;22.20;99.90;;;;;;5074577;28;20373;-60
2021/01/12 12:17:34;;;;;;;14.18;11.48;;;22.20;99.90;;;;;;5074861;28;20090;-61
2021/01/12 12:20:03;;;;;;;13.07;11.75;;;22.20;99.90;;;;;;5074784;28;20040;-59
2021/01/12 12:22:31;;;;;;;13.70;12.40;;;22.10;99.90;;;;;;5074935;28;20083;-60
2021/01/12 12:24:58;;;;;;;14.27;12.38;;;22.10;99.90;;;;;;5074686;28;20425;-60
2021/01/12 12:27:25;;;;;;;15.25;13.02;;;22.10;99.90;;;;;;5074538;28;20020;-61
2021/01/12 12:29:53;;;;;;;14.20;12.48;;;22.10;99.90;;;;;;5074546;28;20028;-61
2021/01/12 12:32:22;;;;;;;21.08;15.95;;;22.00;99.90;;;;;;5074611;28;20021;-60
2021/01/12 12:34:49;;;;;;;14.90;12.55;;;22.00;99.90;;;;;;5074531;28;20037;-60
2021/01/12 12:37:17;;;;;;;20.52;13.60;;;22.00;99.90;;;;;;5074502;28;20077;-61
2021/01/12 12:39:44;;;;;;;16.60;14.35;;;22.00;99.90;;;;;;5073514;28;20055;-60
2021/01/12 12:42:13;;;;;;;15.70;14.15;;;22.00;99.90;;;;;;5074355;28;20048;-60
2021/01/12 12:44:40;;;;;;;15.93;14.25;;;22.00;99.90;;;;;;5074408;28;20077;-60
2021/01/12 12:47:08;;;;;;;19.65;14.70;;;22.00;99.90;;;;;;5074339;28;20020;-60
2021/01/12 12:49:35;;;;;;;16.33;14.93;;;22.00;99.90;;;;;;5074210;28;20392;-60
2021/01/12 12:52:02;;;;;;;19.17;14.98;;;22.00;99.90;;;;;;5074152;28;20027;-60
2021/01/12 12:54:31;;;;;;;18.98;15.05;;;22.00;99.90;;;;;;5073971;28;20041;-60
2021/01/12 12:56:59;;;;;;;23.67;15.38;;;22.00;99.90;;;;;;5074071;28;20020;-60
2021/01/12 12:59:26;;;;;;;19.25;14.85;;;22.00;99.90;;;;;;5074049;28;20044;-61
2021/01/12 13:01:54;;;;;;;17.58;15.02;;;22.00;99.90;;;;;;5074000;28;20020;-60
2021/01/12 13:04:22;;;;;;;16.23;14.52;;;22.00;99.90;;;;;;5073953;28;20027;-61
2021/01/12 13:06:53;;;;;;;18.70;14.05;;;22.00;99.90;;;;;;5073913;28;20021;-64
2021/01/12 13:09:22;;;;;;;17.55;14.30;;;22.00;99.90;;;;;;5073811;28;20381;-59
2021/01/12 13:11:54;;;;;;;20.13;14.93;;;22.00;99.90;;;;;;5073960;28;20056;-59
2021/01/12 13:14:22;;;;;;;18.13;15.05;;;22.00;99.90;;;;;;5073700;28;20033;-60
2021/01/12 13:16:50;;;;;;;18.35;15.10;;;22.00;99.90;;;;;;5073731;28;20017;-60
2021/01/12 13:19:19;;;;;;;16.60;15.07;;;22.00;99.90;;;;;;5073855;28;20020;-60
2021/01/12 13:21:54;;;;;;;17.02;14.60;;;21.90;99.90;;;;;;5073649;28;20074;-61
2021/01/12 13:24:22;;;;;;;18.30;15.02;;;21.90;99.90;;;;;;5073491;28;20027;-61
2021/01/12 13:26:52;;;;;;;19.35;15.32;;;21.90;99.90;;;;;;5073445;28;20408;-60
2021/01/12 13:29:19;;;;;;;17.88;15.98;;;21.90;99.90;;;;;;5073506;28;20484;-61
2021/01/12 13:31:47;;;;;;;18.17;16.33;;;21.90;99.90;;;;;;5073450;28;20519;-61
2021/01/12 13:34:14;;;;;;;19.40;16.63;;;21.90;99.90;;;;;;5073436;28;20028;-60
2021/01/12 13:36:42;;;;;;;27.30;16.60;;;21.90;99.90;;;;;;5073217;28;20036;-61
2021/01/12 13:39:10;;;;;;;18.67;16.83;;;21.90;99.90;;;;;;5073333;28;20074;-61
2021/01/12 13:41:38;;;;;;;19.65;17.85;;;21.90;99.90;;;;;;5073298;28;20497;-60
2021/01/12 13:44:05;;;;;;;18.50;16.50;;;21.80;99.90;;;;;;5073218;28;20447;-61
2021/01/12 13:46:40;;;;;;;19.08;16.83;;;21.90;99.90;;;;;;5073228;28;20381;-61
2021/01/12 13:49:08;;;;;;;20.85;18.70;;;21.80;99.90;;;;;;5073337;28;20020;-61
2021/01/12 13:51:40;;;;;;;19.23;17.15;;;21.80;99.90;;;;;;5073133;28;20028;-61
2021/01/12 13:54:08;;;;;;;18.70;16.30;;;21.80;99.90;;;;;;5073205;28;20162;-60
2021/01/12 13:56:41;;;;;;;17.70;15.85;;;21.80;99.90;;;;;;5073066;28;20016;-61
2021/01/12 13:59:12;;;;;;;19.98;17.65;;;21.80;99.90;;;;;;5073078;28;20490;-61
2021/01/12 14:01:41;;;;;;;20.52;16.58;;;21.80;99.90;;;;;;5073198;28;20481;-61
2021/01/12 14:04:09;;;;;;;17.83;16.00;;;21.80;99.90;;;;;;5073103;28;20024;-61
2021/01/12 14:06:36;;;;;;;18.27;16.58;;;21.80;99.90;;;;;;5073005;28;20097;-61
2021/01/12 14:09:04;;;;;;;17.92;16.23;;;21.80;99.90;;;;;;5072967;28;20028;-63
2021/01/12 14:11:32;;;;;;;16.77;15.30;;;21.80;99.90;;;;;;5072970;28;20025;-60
2021/01/12 14:14:00;;;;;;;19.58;16.27;;;21.70;99.90;;;;;;5073197;28;20082;-61
2021/01/12 14:16:29;;;;;;;17.98;16.13;;;21.70;99.90;;;;;;5072731;28;20102;-61
2021/01/12 14:18:56;;;;;;;17.98;16.20;;;21.70;99.90;;;;;;5073297;28;20051;-60
2021/01/12 14:21:24;;;;;;;18.52;16.50;;;21.70;99.90;;;;;;5072904;28;20016;-60
2021/01/12 14:23:53;;;;;;;18.48;16.58;;;21.70;99.90;;;;;;5072927;28;20024;-60
2021/01/12 14:26:20;;;;;;;18.65;16.75;;;21.60;99.90;;;;;;5072815;28;20028;-61
2021/01/12 14:28:48;;;;;;;18.42;16.58;;;21.60;99.90;;;;;;5072860;28;20025;-60
2021/01/12 14:31:15;;;;;;;18.27;16.48;;;21.60;99.90;;;;;;5072743;28;20123;-60
2021/01/12 14:33:44;;;;;;;19.83;17.23;;;21.60;99.90;;;;;;5072765;28;20031;-60
2021/01/12 14:36:21;;;;;;;17.13;15.43;;;21.60;99.90;;;;;;5072551;28;20111;-60
2021/01/12 14:39:03;;;;;;;23.30;16.90;;;21.60;99.90;;;;;;5072768;28;20353;-61
2021/01/12 14:41:31;;;;;;;18.10;16.38;;;21.60;99.90;;;;;;5071441;28;20027;-61
2021/01/12 14:43:59;;;;;;;17.65;16.05;;;21.50;99.90;;;;;;5072692;28;20525;-60
2021/01/12 14:46:34;;;;;;;16.88;15.18;;;21.50;99.90;;;;;;5072608;28;20101;-60
2021/01/12 14:49:02;;;;;;;21.15;15.50;;;21.60;99.90;;;;;;5072707;28;20393;-60
2021/01/12 14:51:31;;;;;;;18.05;16.15;;;21.60;99.90;;;;;;5072525;28;20430;-60
2021/01/12 14:54:03;;;;;;;16.17;14.60;;;21.50;99.90;;;;;;5072774;28;20032;-60
2021/01/12 14:56:33;;;;;;;17.83;16.00;;;21.60;99.90;;;;;;5072454;28;20389;-60
2021/01/12 14:59:01;;;;;;;18.93;16.67;;;21.60;99.90;;;;;;5072532;28;20017;-60
2021/01/12 15:01:42;;;;;;;20.60;16.88;;;21.60;99.90;;;;;;5072844;28;20286;-60
2021/01/12 15:04:11;;;;;;;17.00;15.57;;;21.60;99.90;;;;;;5076487;28;20047;-60
2021/01/12 15:06:39;;;;;;;20.35;16.00;;;21.60;99.90;;;;;;5076155;28;20021;-60
2021/01/12 15:09:11;;;;;;;18.70;16.63;;;21.60;99.90;;;;;;5076143;28;20091;-60
2021/01/12 15:11:41;;;;;;;16.95;15.20;;;21.60;99.90;;;;;;5076186;28;20578;-60
2021/01/12 15:14:08;;;;;;;17.38;15.98;;;21.50;99.90;;;;;;5076042;28;20024;-60
2021/01/12 15:16:35;;;;;;;18.42;16.50;;;21.50;99.90;;;;;;5075847;28;20527;-61
2021/01/12 15:19:03;;;;;;;17.13;15.63;;;21.50;99.90;;;;;;5076195;28;20019;-60
2021/01/12 15:21:30;;;;;;;17.92;16.13;;;21.50;99.90;;;;;;5075999;28;20013;-62
2021/01/12 15:23:58;;;;;;;17.70;16.00;;;21.40;99.90;;;;;;5075910;28;20381;-60
2021/01/12 15:26:25;;;;;;;17.20;15.52;;;21.40;99.90;;;;;;5075798;28;20070;-61
2021/01/12 15:28:52;;;;;;;22.60;16.20;;;21.40;99.90;;;;;;5075835;28;20020;-60
2021/01/12 15:31:21;;;;;;;17.63;15.90;;;21.40;99.90;;;;;;5075733;28;20025;-60
2021/01/12 15:33:48;;;;;;;18.90;16.90;;;21.40;99.90;;;;;;5075762;28;20027;-60
2021/01/12 15:36:18;;;;;;;19.95;16.52;;;21.40;99.90;;;;;;5075655;28;20495;-61
2021/01/12 15:38:45;;;;;;;;;;;21.40;99.90;;;;;;5076374;28;20021;-60
2021/01/12 15:41:13;;;;;;;18.90;16.88;;;21.40;99.90;;;;;;5075675;28;20013;-60
2021/01/12 15:43:41;;;;;;;18.80;17.30;;;21.40;99.90;;;;;;5075654;28;20035;-60
2021/01/12 15:46:09;;;;;;;18.00;16.15;;;21.40;99.90;;;;;;5075512;28;20025;-61
2021/01/12 15:48:37;;;;;;;18.55;16.75;;;21.40;99.90;;;;;;5075376;28;20032;-60
2021/01/12 15:51:04;;;;;;;18.13;16.58;;;21.30;99.90;;;;;;5075421;28;20032;-60
2021/01/12 15:53:32;;;;;;;23.30;17.17;;;21.30;99.90;;;;;;5075446;28;20036;-60
2021/01/12 15:56:01;;;;;;;19.50;17.70;;;21.30;99.90;;;;;;5075420;28;20035;-60
2021/01/12 15:58:28;;;;;;;19.17;17.33;;;21.30;99.90;;;;;;5075230;28;20485;-60
2021/01/12 16:00:56;;;;;;;18.20;16.30;;;21.30;99.90;;;;;;5075276;28;20074;-59
2021/01/12 16:03:23;;;;;;;17.60;15.77;;;21.30;99.90;;;;;;5075275;28;20072;-60
2021/01/12 16:05:52;;;;;;;19.08;16.15;;;21.30;99.90;;;;;;5075246;28;20023;-60
2021/01/12 16:08:20;;;;;;;19.30;17.45;;;21.30;99.90;;;;;;5075025;28;20025;-60
2021/01/12 16:10:47;;;;;;;18.88;17.17;;;21.30;99.90;;;;;;5075063;28;20039;-60
2021/01/12 16:13:16;;;;;;;19.33;17.48;;;21.30;99.90;;;;;;5074893;28;20436;-61
2021/01/12 16:15:43;;;;;;;19.55;17.50;;;21.20;99.90;;;;;;5074704;28;20060;-60
2021/01/12 16:18:11;;;;;;;19.05;17.45;;;21.20;99.90;;;;;;5074951;28;20017;-60
2021/01/12 16:20:39;;;;;;;19.58;17.63;;;21.20;99.90;;;;;;5074869;28;20024;-61
2021/01/12 16:23:07;;;;;;;20.75;18.55;;;21.20;99.90;;;;;;5074852;28;20016;-60
2021/01/12 16:25:46;;;;;;;19.92;18.25;;;21.20;99.90;;;;;;5074853;28;20033;-61
2021/01/12 16:28:17;;;;;;;18.75;17.05;;;21.20;99.90;;;;;;5074678;28;20085;-60
2021/01/12 16:30:45;;;;;;;24.38;18.60;;;21.20;99.90;;;;;;5074744;28;20052;-60
2021/01/12 16:33:26;;;;;;;19.45;17.85;;;21.20;99.90;;;;;;5074623;28;20021;-60
2021/01/12 16:35:55;;;;;;;18.42;16.55;;;21.10;99.90;;;;;;5074865;28;20024;-59
2021/01/12 16:38:26;;;;;;;20.70;17.73;;;21.10;99.90;;;;;;5074512;28;20021;-59
2021/01/12 16:40:54;;;;;;;19.02;17.60;;;21.10;99.90;;;;;;5074474;28;20103;-60
2021/01/12 16:43:22;;;;;;;19.63;17.50;;;21.10;99.90;;;;;;5074325;28;20357;-60
2021/01/12 16:45:56;;;;;;;19.92;17.85;;;21.10;99.90;;;;;;5074373;28;20032;-60
2021/01/12 16:48:29;;;;;;;19.75;18.30;;;21.10;99.90;;;;;;5074460;28;20028;-60
2021/01/12 16:50:57;;;;;;;20.38;18.27;;;21.00;99.90;;;;;;5074261;28;20044;-60
2021/01/12 16:53:28;;;;;;;19.33;17.45;;;21.00;99.90;;;;;;5074233;28;20116;-60
2021/01/12 16:56:10;;;;;;;19.85;18.25;;;21.10;99.90;;;;;;5074080;28;20404;-60
2021/01/12 16:58:48;;;;;;;18.90;17.30;;;21.10;99.90;;;;;;5074085;28;20384;-60
2021/01/12 17:01:19;;;;;;;19.30;17.38;;;21.00;99.90;;;;;;5074041;28;20035;-60
2021/01/12 17:03:47;;;;;;;19.88;17.90;;;21.00;99.90;;;;;;5074051;28;20025;-61
2021/01/12 17:06:15;;;;;;;20.23;18.30;;;20.90;99.90;;;;;;5073946;28;20089;-61
2021/01/12 17:08:42;;;;;;;19.58;17.80;;;21.00;99.90;;;;;;5073826;28;20025;-62
2021/01/12 17:11:15;;;;;;;20.02;18.20;;;20.90;99.90;;;;;;5073807;28;20052;-61
2021/01/12 17:13:43;;;;;;;19.58;17.95;;;20.90;99.90;;;;;;5073802;28;20070;-61
2021/01/12 17:16:11;;;;;;;18.70;16.80;;;20.90;99.90;;;;;;5073487;28;20092;-60
2021/01/12 17:18:46;;;;;;;19.90;17.95;;;20.80;99.90;;;;;;5073597;28;20024;-61
2021/01/12 17:21:14;;;;;;;19.58;17.70;;;20.80;99.90;;;;;;5073604;28;20020;-61
2021/01/12 17:23:50;;;;;;;18.90;17.15;;;20.80;99.90;;;;;;5072521;28;20031;-61
2021/01/12 17:26:20;;;;;;;18.95;17.05;;;20.80;99.90;;;;;;5073028;28;20036;-61
2021/01/12 17:28:54;;;;;;;18.48;17.20;;;20.70;99.90;;;;;;5072123;28;20457;-61
2021/01/12 17:31:25;;;;;;;21.88;19.92;;;20.70;99.90;;;;;;5073370;28;20032;-61
2021/01/12 17:33:52;;;;;;;20.90;19.15;;;20.70;99.90;;;;;;5073341;28;20040;-61
2021/01/12 17:36:20;;;;;;;22.52;20.35;;;20.60;99.90;;;;;;5073271;28;20036;-61
2021/01/12 17:38:48;;;;;;;22.42;20.73;;;20.60;99.90;;;;;;5073420;28;20078;-61
2021/01/12 17:41:19;;;;;;;20.75;19.17;;;20.60;99.90;;;;;;5073423;28;20070;-61
2021/01/12 17:43:46;;;;;;;21.63;20.02;;;20.60;99.90;;;;;;5073308;28;20024;-60
2021/01/12 17:46:14;;;;;;;22.45;20.75;;;20.50;99.90;;;;;;5073191;28;20388;-60
2021/01/12 17:48:41;;;;;;;21.42;19.35;;;20.60;99.90;;;;;;5073216;28;20109;-61
2021/01/12 17:51:09;;;;;;;23.27;20.98;;;20.50;99.90;;;;;;5071874;28;20029;-61
2021/01/12 17:53:43;;;;;;;22.13;20.42;;;20.50;99.90;;;;;;5073077;28;20032;-61
2021/01/12 17:56:12;;;;;;;20.60;18.98;;;20.50;99.90;;;;;;5073110;28;20078;-61
2021/01/12 17:58:42;;;;;;;21.55;19.75;;;20.50;99.90;;;;;;5073141;28;20012;-61
2021/01/12 18:01:10;;;;;;;23.05;21.00;;;20.50;99.90;;;;;;5072976;28;20028;-61
2021/01/12 18:03:44;;;;;;;21.30;19.90;;;20.40;99.90;;;;;;5072949;28;20086;-60
2021/01/12 18:06:11;;;;;;;24.15;21.75;;;20.40;99.90;;;;;;5072925;28;20357;-61
2021/01/12 18:08:41;;;;;;;23.02;21.10;;;20.40;99.90;;;;;;5072821;28;20074;-61
2021/01/12 18:11:09;;;;;;;23.70;22.00;;;20.40;99.90;;;;;;5072934;28;20029;-61
2021/01/12 18:13:40;;;;;;;24.40;22.83;;;20.50;99.90;;;;;;5073048;28;20025;-61
2021/01/12 18:16:08;;;;;;;25.48;23.70;;;20.50;99.90;;;;;;5072725;28;20056;-60
2021/01/12 18:18:36;;;;;;;26.27;24.17;;;20.50;99.90;;;;;;5072898;28;20413;-61
2021/01/12 18:21:04;;;;;;;25.50;23.70;;;20.50;99.90;;;;;;5072842;28;20095;-61
2021/01/12 18:23:32;;;;;;;25.23;23.38;;;20.50;99.90;;;;;;5072860;28;20025;-61
2021/01/12 18:26:02;;;;;;;25.33;23.67;;;20.50;99.90;;;;;;5073219;28;20035;-61
2021/01/12 18:28:34;;;;;;;25.75;23.90;;;20.50;99.90;;;;;;5073061;28;20032;-60
2021/01/12 18:31:02;;;;;;;24.38;22.63;;;20.50;99.90;;;;;;5072916;28;20040;-61
2021/01/12 18:33:30;;;;;;;26.33;24.40;;;20.50;99.90;;;;;;5072785;28;20169;-61
2021/01/12 18:35:58;;;;;;;26.00;24.05;;;20.50;99.90;;;;;;5072546;28;20054;-61
2021/01/12 18:38:31;;;;;;;25.40;23.67;;;20.50;99.90;;;;;;5076374;28;20021;-61
2021/01/12 18:41:00;;;;;;;24.00;22.50;;;20.40;99.90;;;;;;5076787;28;20062;-66
2021/01/12 18:43:29;;;;;;;24.52;22.77;;;20.40;99.90;;;;;;5076572;28;20027;-62
2021/01/12 18:45:56;;;;;;;26.27;24.08;;;20.30;99.90;;;;;;5076689;28;20026;-61
2021/01/12 18:48:29;;;;;;;24.63;22.90;;;20.30;99.90;;;;;;5076619;28;20027;-60
2021/01/12 18:50:58;;;;;;;24.58;22.98;;;20.30;99.90;;;;;;5076505;28;20504;-60
2021/01/12 18:53:26;;;;;;;25.67;23.70;;;20.30;99.90;;;;;;5076381;28;20051;-59
2021/01/12 18:55:56;;;;;;;26.25;24.30;;;20.20;99.90;;;;;;5076340;28;20052;-59
2021/01/12 18:58:23;;;;;;;;;;;20.20;99.90;;;;;;5076772;28;20023;-59
2021/01/12 19:00:51;;;;;;;29.98;27.70;;;20.20;99.90;;;;;;5076282;28;19927;-60
2021/01/12 19:03:21;;;;;;;30.25;28.02;;;20.30;99.90;;;;;;5076105;28;20473;-60
2021/01/12 19:05:51;;;;;;;29.80;27.30;;;20.30;99.90;;;;;;5076341;28;20032;-60
2021/01/12 19:08:21;;;;;;;29.80;27.83;;;20.30;99.90;;;;;;5075996;28;20032;-60
2021/01/12 19:10:48;;;;;;;30.25;27.92;;;20.30;99.90;;;;;;5076065;28;20477;-60
2021/01/12 19:13:16;;;;;;;31.17;28.90;;;20.40;99.90;;;;;;5076007;28;20067;-60
2021/01/12 19:15:45;;;;;;;28.65;26.75;;;20.40;99.90;;;;;;5075582;28;20047;-59
2021/01/12 19:18:14;;;;;;;22.77;20.98;;;20.40;99.90;;;;;;5076231;28;20476;-60
2021/01/12 19:20:41;;;;;;;22.67;21.13;;;20.50;99.90;;;;;;5076174;28;20021;-60
2021/01/12 19:23:09;;;;;;;22.25;20.33;;;20.40;99.90;;;;;;5075823;28;20349;-60
2021/01/12 19:25:36;;;;;;;23.33;21.60;;;20.50;99.90;;;;;;5075760;28;20419;-60
2021/01/12 19:28:04;;;;;;;22.00;20.45;;;20.50;99.90;;;;;;5075748;28;20016;-60
2021/01/12 19:30:34;;;;;;;21.92;19.95;;;20.50;99.90;;;;;;5075689;28;20361;-60
2021/01/12 19:33:09;;;;;;;22.70;20.77;;;20.60;99.90;;;;;;5075726;28;20023;-59
2021/01/12 19:35:38;;;;;;;22.90;21.17;;;20.60;99.90;;;;;;5075664;28;20549;-60
2021/01/12 19:38:09;;;;;;;22.63;20.80;;;20.60;99.90;;;;;;5075568;28;20457;-60
2021/01/12 19:40:37;;;;;;;23.13;21.48;;;20.60;99.90;;;;;;5075636;28;20029;-61
2021/01/12 19:43:06;;;;;;;23.77;21.40;;;20.70;99.90;;;;;;5075607;28;20020;-62
2021/01/12 19:45:33;;;;;;;23.33;21.02;;;20.70;99.90;;;;;;5075516;28;20408;-60
2021/01/12 19:48:05;;;;;;;22.50;20.70;;;20.70;99.90;;;;;;5075040;28;20028;-59
2021/01/12 19:50:33;;;;;;;22.00;20.50;;;20.70;99.90;;;;;;5075535;28;20024;-59
2021/01/12 19:53:02;;;;;;;23.27;21.30;;;20.70;99.90;;;;;;5075461;28;20024;-59
2021/01/12 19:55:30;;;;;;;22.70;20.70;;;20.70;99.90;;;;;;5075232;28;20039;-60
2021/01/12 19:57:57;;;;;;;22.20;20.13;;;20.80;99.90;;;;;;5075269;28;20024;-60
2021/01/12 20:00:25;;;;;;;20.23;18.70;;;20.80;99.90;;;;;;5075175;28;20503;-60
2021/01/12 20:02:52;;;;;;;22.92;20.63;;;20.90;99.90;;;;;;5075238;28;20074;-60
2021/01/12 20:05:20;;;;;;;21.52;19.83;;;21.00;99.90;;;;;;5075393;28;20024;-60
2021/01/12 20:07:48;;;;;;;19.88;18.58;;;21.10;99.90;;;;;;5075114;28;20027;-60
2021/01/12 20:10:16;;;;;;;20.45;18.90;;;21.20;99.90;;;;;;5075459;28;20024;-60
2021/01/12 20:12:55;;;;;;;20.05;18.40;;;21.30;99.90;;;;;;5075014;28;20029;-60
2021/01/12 20:15:24;;;;;;;18.35;17.05;;;21.40;99.90;;;;;;5074811;28;20345;-60
2021/01/12 20:18:10;;;;;;;21.25;19.80;;;21.50;99.90;;;;;;5074991;28;20039;-61
2021/01/12 20:20:43;;;;;;;20.33;18.63;;;21.70;99.90;;;;;;5074882;28;20035;-61
2021/01/12 20:23:14;;;;;;;17.48;16.10;;;21.80;99.90;;;;;;5074676;28;20495;-60
2021/01/12 20:25:46;;;;;;;17.52;15.90;;;21.90;99.90;;;;;;5074566;28;20033;-60
2021/01/12 20:28:19;;;;;;;17.10;15.70;;;22.00;99.90;;;;;;5074545;28;20104;-61
2021/01/12 20:30:52;;;;;;;15.75;14.63;;;22.20;99.90;;;;;;5074524;28;20048;-60
2021/01/12 20:33:20;;;;;;;15.25;14.30;;;22.30;99.90;;;;;;5074714;28;20035;-60
2021/01/12 20:35:52;;;;;;;16.20;14.77;;;22.40;99.90;;;;;;5074368;28;20043;-61
2021/01/12 20:38:22;;;;;;;14.95;13.88;;;22.50;99.90;;;;;;5074494;28;20021;-60
2021/01/12 20:41:04;;;;;;;14.82;13.70;;;22.70;99.90;;;;;;5074203;28;20020;-60
2021/01/12 20:43:34;;;;;;;14.20;13.15;;;22.90;99.90;;;;;;5074296;28;20029;-60
2021/01/12 20:46:03;;;;;;;12.50;11.70;;;23.00;99.90;;;;;;5074291;28;20078;-60
2021/01/12 20:48:31;;;;;;;11.85;10.75;;;23.10;99.90;;;;;;5074172;28;20481;-61
2021/01/12 20:51:00;;;;;;;11.98;10.98;;;23.20;99.90;;;;;;5073965;28;20476;-60
2021/01/12 20:53:30;;;;;;;11.35;10.35;;;23.30;99.90;;;;;;5074227;28;20103;-60
2021/01/12 20:55:58;;;;;;;11.50;10.55;;;23.50;99.90;;;;;;5073876;28;20071;-60
2021/01/12 20:58:26;;;;;;;11.57;10.48;;;23.60;99.90;;;;;;5072720;28;20115;-60
2021/01/12 21:00:53;;;;;;;11.20;10.15;;;23.80;99.90;;;;;;5073217;28;20070;-61
2021/01/12 21:03:20;;;;;;;11.30;10.40;;;23.90;99.90;;;;;;5073955;28;20099;-60
2021/01/12 21:05:48;;;;;;;11.10;10.20;;;24.00;99.90;;;;;;5073873;28;20435;-61
2021/01/12 21:08:19;;;;;;;11.18;10.27;;;24.10;99.90;;;;;;5074024;28;20074;-60
2021/01/12 21:10:50;;;;;;;11.05;10.25;;;24.20;99.90;;;;;;5073880;28;20385;-58
2021/01/12 21:13:17;;;;;;;11.68;10.50;;;24.40;99.90;;;;;;5073947;28;20024;-59
2021/01/12 21:15:45;;;;;;;10.85;9.77;;;24.50;99.90;;;;;;5073485;28;20048;-59
2021/01/12 21:18:12;;;;;;;10.38;8.52;;;24.60;99.90;;;;;;5073729;28;20042;-60
2021/01/12 21:20:39;;;;;;;9.65;8.95;;;24.70;99.90;;;;;;5072199;28;20063;-59
2021/01/12 21:23:07;;;;;;;9.80;8.88;;;24.90;99.90;;;;;;5073465;28;20025;-60
2021/01/12 21:25:34;;;;;;;9.68;8.68;;;25.00;99.90;;;;;;5073472;28;20392;-59
2021/01/12 21:28:02;;;;;;;9.18;8.52;;;25.10;99.90;;;;;;5073513;28;20468;-59
2021/01/12 21:30:29;;;;;;;9.52;8.73;;;25.20;99.90;;;;;;5073520;28;20021;-59
2021/01/12 21:32:56;;;;;;;8.52;7.72;;;25.40;99.90;;;;;;5073898;28;20543;-60
2021/01/12 21:35:24;;;;;;;8.95;8.27;;;25.50;99.90;;;;;;5071940;28;20535;-60
2021/01/12 21:37:51;;;;;;;8.95;8.35;;;25.40;99.90;;;;;;5073241;28;20099;-60
2021/01/12 21:40:19;;;;;;;8.63;7.30;;;25.50;99.90;;;;;;5073316;28;20384;-60
2021/01/12 21:42:47;;;;;;;10.38;8.50;;;25.60;99.90;;;;;;5073034;28;20032;-60
2021/01/12 21:45:17;;;;;;;9.10;8.30;;;25.60;99.90;;;;;;5073065;28;20033;-59
2021/01/12 21:47:44;;;;;;;8.82;8.13;;;25.50;99.90;;;;;;5073266;28;20021;-63
2021/01/12 21:50:12;;;;;;;9.10;8.60;;;25.50;99.90;;;;;;5073237;28;20060;-59
2021/01/12 21:52:39;;;;;;;10.27;9.40;;;25.60;99.90;;;;;;5073299;28;20028;-70
2021/01/12 21:55:07;;;;;;;8.07;7.55;;;25.90;99.90;;;;;;5073212;28;20500;-59
2021/01/12 21:57:35;;;;;;;9.68;9.07;;;25.90;99.90;;;;;;5073319;28;20017;-61
2021/01/12 22:00:05;;;;;;;9.52;8.93;;;25.90;99.90;;;;;;5073209;28;20032;-63
2021/01/12 22:02:38;;;;;;;7.88;7.18;;;25.60;99.90;;;;;;5073215;28;20024;-60
2021/01/12 22:05:07;;;;;;;8.60;8.10;;;25.50;99.90;;;;;;5073209;28;20107;-61
2021/01/12 22:07:34;;;;;;;9.57;8.85;;;25.60;99.90;;;;;;5072848;28;20499;-60
2021/01/12 22:10:03;;;;;;;9.23;8.38;;;25.60;99.90;;;;;;5072901;28;20051;-64
2021/01/12 22:12:31;;;;;;;8.27;7.55;;;25.80;99.90;;;;;;5072960;28;20040;-64
2021/01/12 22:14:58;;;;;;;8.82;7.60;;;25.80;99.90;;;;;;5072790;28;20044;-63
2021/01/12 22:17:25;;;;;;;8.90;8.10;;;25.70;99.90;;;;;;5073079;28;20487;-65
2021/01/12 22:19:53;;;;;;;8.35;7.70;;;25.50;99.90;;;;;;5072967;28;20017;-64
2021/01/12 22:22:20;;;;;;;8.95;7.30;;;25.40;99.90;;;;;;5072995;28;20013;-64
2021/01/12 22:24:47;;;;;;;7.63;6.93;;;25.50;99.90;;;;;;5073008;28;20108;-63
2021/01/12 22:27:14;;;;;;;8.07;7.57;;;25.90;99.90;;;;;;5072955;28;20024;-70
2021/01/12 22:29:42;;;;;;;8.18;7.32;;;26.20;99.90;;;;;;5072872;28;20031;-61
2021/01/12 22:32:09;;;;;;;6.30;5.78;;;26.50;99.90;;;;;;5072835;28;20017;-61
2021/01/12 22:34:36;;;;;;;6.70;6.10;;;26.70;99.90;;;;;;5072854;28;20204;-63
2021/01/12 22:37:05;;;;;;;7.38;6.60;;;26.90;99.90;;;;;;5072757;28;20028;-62
2021/01/12 22:39:32;;;;;;;8.43;6.30;;;27.20;99.90;;;;;;5072660;28;20049;-61
2021/01/12 22:42:01;;;;;;;6.65;6.10;;;27.40;99.90;;;;;;5072657;28;20051;-60
2021/01/12 22:44:29;;;;;;;7.45;7.00;;;27.70;99.90;;;;;;5072680;28;20096;-64
2021/01/12 22:46:57;;;;;;;7.88;7.07;;;28.00;99.90;;;;;;5072620;28;20052;-62
2021/01/12 22:49:25;;;;;;;6.70;6.30;;;28.30;99.90;;;;;;5072713;28;20017;-59
2021/01/12 22:51:52;;;;;;;6.38;5.95;;;28.30;99.90;;;;;;5072683;28;20024;-64
2021/01/12 22:54:21;;;;;;;6.82;5.78;;;28.40;99.90;;;;;;5072629;28;20531;-62